KEAU/EAU METAR and TAF weather

Enter ICAO airport designator
Station Type Date Time Source
KEAU METAR 2022/12/08 12:56 UTC NOAA

KEAU 081256Z 05003KT 10SM CLR M16/M17 A3039 RMK AO2 SLP315 T11561172


Station Type Date Time Source
KEAU Decoded METAR 2022/12/08 12:56 UTC NOAA

EAU CLAIRE CHIPPEWA VALLEY, WI, United States (KEAU) 44-52N 091-29W
Dec 08, 2022 - 07:56 AM EST / 2022.12.08 1256 UTC
Wind: from the NE (050 degrees) at 3 MPH (3 KT):0
Visibility: 10 mile(s):0
Sky conditions: clear
Temperature: 3.9 F (-15.6 C)
Dew Point: 1.0 F (-17.2 C)
Relative Humidity: 87%
Pressure (altimeter): 30.39 in. Hg (1029 hPa)
ob: KEAU 081256Z 05003KT 10SM CLR M16/M17 A3039 RMK AO2 SLP315 T11561172
cycle: 13

Station Type Date Time Source
KEAU TAF 2022/12/08 12:36 UTC NOAA

TAF KEAU 081134Z 0812/0912 VRB02KT P6SM FEW250
FM081700 13005KT P6SM BKN025
FM090600 09005KT 6SM BR BKN020
FM091000 08006KT 6SM -SN BR BKN020

Example: see airport list